»·PEaware :: N16566 KSBA-KBUR

N16566 :: KSBA-KBUR

FLIGHT INFORMATION

Flight Status: Arrived
Operator: Privately registered:
United States
More flights under this callsign
Pilot: Erik K. (18332)
Aircraft: BEECH AIRCRAFT BARON
(BE58)
More flights by this aircraft type
Origin: KSBA Santa Barbara Mun
United States
Destination: KBUR Bob Hope-Burbank
United States
More flights between these airports :: More routes between these airports
Route: +
File this flight plan on PilotEdge
Remarks:
Altitude:
(Current/Filed)
0ft
Speed:
(Current/Filed)
0kts
Departed: 21-Mar-18 11:31 AM
Arrived: 21-Mar-18 12:03 PM
Distance/Time
Traveled:
74nm/0:32
Distance/Time
To Go:
Arrived

Flight Plot

Page will automatically refresh every two minutes.


Map Options




Map Legend


Flown Route
Filed Route
Departure Airport
Arrival Airport
Navaid (VOR, NDB)
Fix

Horizontal Profiles

Position Reports

Time Latitude Longitude Heading Altitude Ground
Speed
21-Mar-18 11:18 34.422653 -119.835589 340 7ft 0kts
21-Mar-18 11:19 34.422653 -119.835589 340 7ft 0kts
21-Mar-18 11:20 34.422653 -119.835589 340 7ft 0kts
21-Mar-18 11:21 34.422653 -119.835589 340 7ft 0kts
21-Mar-18 11:22 34.422653 -119.835589 340 7ft 0kts
21-Mar-18 11:23 34.422653 -119.835589 340 7ft 0kts
21-Mar-18 11:24 34.422655 -119.835590 340 7ft 0kts
21-Mar-18 11:25 34.425071 -119.837851 345 10ft 14kts
21-Mar-18 11:26 34.429291 -119.839154 345 11ft 15kts
21-Mar-18 11:27 34.430665 -119.839535 288 11ft 0kts
21-Mar-18 11:28 34.430665 -119.839535 288 11ft 0kts
21-Mar-18 11:29 34.430681 -119.839819 258 11ft 8kts
21-Mar-18 11:30 34.411490 -119.834242 165 603ft 114kts
21-Mar-18 11:31 34.378924 -119.825485 168 1214ft 136kts
21-Mar-18 11:32 34.344936 -119.815690 171 1429ft 115kts
21-Mar-18 11:33 34.315870 -119.796941 111 1585ft 126kts
21-Mar-18 11:34 34.328374 -119.756293 58 2371ft 135kts
21-Mar-18 11:35 34.345117 -119.713759 95 2923ft 145kts
21-Mar-18 11:36 34.336792 -119.666163 102 3529ft 144kts
21-Mar-18 11:37 34.328075 -119.618867 102 4106ft 144kts
21-Mar-18 11:38 34.319479 -119.572184 102 4651ft 144kts
21-Mar-18 11:39 34.311075 -119.526418 102 5352ft 135kts
21-Mar-18 11:40 34.302921 -119.481815 99 6047ft 144kts
21-Mar-18 11:41 34.306377 -119.432464 90 7041ft 147kts
21-Mar-18 11:42 34.299629 -119.381994 125 7607ft 165kts
21-Mar-18 11:43 34.270614 -119.336851 119 7789ft 171kts
21-Mar-18 11:44 34.259530 -119.280831 101 7459ft 203kts
21-Mar-18 11:45 34.249216 -119.218664 98 7971ft 156kts
21-Mar-18 11:46 34.240270 -119.167496 94 8816ft 145kts
21-Mar-18 11:47 34.236298 -119.116387 103 9434ft 153kts
21-Mar-18 11:48 34.243109 -119.057822 67 8172ft 202kts
21-Mar-18 11:49 34.248404 -118.999325 110 8930ft 153kts
21-Mar-18 11:50 34.243597 -118.947491 92 9252ft 173kts
21-Mar-18 11:51 34.239796 -118.888124 94 9246ft 180kts
21-Mar-18 11:52 34.235477 -118.827759 94 9246ft 181kts
21-Mar-18 11:53 34.231157 -118.767897 94 9246ft 181kts
21-Mar-18 11:54 34.226758 -118.707358 94 9246ft 181kts
21-Mar-18 11:55 34.222372 -118.647400 94 9246ft 181kts
21-Mar-18 11:56 34.217990 -118.587914 94 9246ft 181kts
21-Mar-18 11:57 34.213354 -118.528982 98 9246ft 165kts
21-Mar-18 11:58 34.204886 -118.485590 108 7412ft 112kts
21-Mar-18 11:59 34.201346 -118.450135 79 5383ft 116kts
21-Mar-18 12:00 34.198764 -118.415467 94 3119ft 101kts
21-Mar-18 12:01 34.198242 -118.383591 89 1486ft 92kts
21-Mar-18 12:02 34.197304 -118.360281 179 711ft 20kts
21-Mar-18 12:03 34.196743 -118.360067 87 710ft 8kts
21-Mar-18 12:04 34.196785 -118.357519 91 705ft 0kts
21-Mar-18 12:05 34.196785 -118.357519 91 705ft 0kts
21-Mar-18 12:06 34.195659 -118.357344 180 702ft 0kts
21-Mar-18 12:07 34.195659 -118.357344 180 702ft 0kts
21-Mar-18 12:08 34.195659 -118.357344 180 702ft 0kts
21-Mar-18 12:09 34.195659 -118.357344 180 702ft 0kts
21-Mar-18 12:10 34.195659 -118.357344 180 702ft 0kts
21-Mar-18 12:11 34.195659 -118.357344 180 702ft 0kts
21-Mar-18 12:12 34.195659 -118.357344 180 702ft 0kts
21-Mar-18 12:13 34.195659 -118.357344 180 702ft 0kts
21-Mar-18 12:14 34.196338 -118.367562 358 721ft 0kts
21-Mar-18 12:15 34.196338 -118.367562 358 721ft 0kts
21-Mar-18 12:16 34.196338 -118.367562 358 721ft 0kts

Navigation Log

Ident Type
Flight plan parsing failed, navigation log unavailable